Time;durP1;ratioP1;P1;durP2;ratioP2;P2;SDS_P1;SDS_P2;PMS_P1;PMS_P2;Temp;Humidity;BMP_temperature;BMP_pressure;BME280_temperature;BME280_humidity;BME280_pressure;Samples;Min_cycle;Max_cycle;Signal;HPM_P1;HPM_P2
2023/06/01 00:02:06;;;;;;;9.07;4.72;;;9.90;98.90;;;;;;5085485;28;20020;-82
2023/06/01 00:04:32;;;;;;;7.03;4.45;;;9.80;98.90;;;;;;5094336;28;20028;-81
2023/06/01 00:07:01;;;;;;;7.65;4.30;;;9.90;98.80;;;;;;5094133;28;20780;-83
2023/06/01 00:09:27;;;;;;;5.82;4.35;;;9.80;98.70;;;;;;5107868;28;20473;-82
2023/06/01 00:11:53;;;;;;;6.85;4.05;;;9.90;98.70;;;;;;5081903;28;20022;-82
2023/06/01 00:14:19;;;;;;;9.38;4.55;;;9.80;98.60;;;;;;5104602;28;20038;-84
2023/06/01 00:16:46;;;;;;;9.70;4.40;;;9.80;98.50;;;;;;5099012;28;20016;-83
2023/06/01 00:19:11;;;;;;;7.18;4.20;;;9.90;98.50;;;;;;5109610;28;20040;-82
2023/06/01 00:21:37;;;;;;;9.10;4.35;;;9.90;98.30;;;;;;5131804;28;20027;-82
2023/06/01 00:24:03;;;;;;;10.45;4.45;;;9.90;98.20;;;;;;5113127;28;20016;-83
2023/06/01 00:26:32;;;;;;;7.35;4.50;;;9.90;98.20;;;;;;5110422;28;20487;-83
2023/06/01 00:29:01;;;;;;;11.55;4.72;;;9.80;98.20;;;;;;5109438;28;20101;-83
2023/06/01 00:31:27;;;;;;;12.45;5.05;;;9.80;98.10;;;;;;5104520;28;20012;-84
2023/06/01 00:33:53;;;;;;;7.60;4.38;;;9.80;98.20;;;;;;5097183;28;20027;-82
2023/06/01 00:36:19;;;;;;;8.82;4.05;;;9.80;98.30;;;;;;5085190;28;20028;-82
2023/06/01 00:38:45;;;;;;;8.68;4.53;;;9.80;98.30;;;;;;5104689;28;20099;-83
2023/06/01 00:41:12;;;;;;;5.97;3.97;;;9.70;98.30;;;;;;5098011;28;20047;-83
2023/06/01 00:43:38;;;;;;;10.52;4.40;;;9.70;98.30;;;;;;5108324;28;20024;-83
2023/06/01 00:46:05;;;;;;;13.05;5.05;;;9.70;98.30;;;;;;5088963;28;20038;-83
2023/06/01 00:48:31;;;;;;;9.15;4.63;;;9.70;98.40;;;;;;5100752;28;20049;-82
2023/06/01 00:50:58;;;;;;;6.60;4.47;;;9.70;98.30;;;;;;5099077;28;20488;-82
2023/06/01 00:53:25;;;;;;;4.63;3.58;;;9.70;98.20;;;;;;5101738;28;20105;-82
2023/06/01 00:55:51;;;;;;;8.00;4.07;;;9.80;98.10;;;;;;5076592;28;20036;-82
2023/06/01 00:58:17;;;;;;;5.20;3.45;;;9.80;98.10;;;;;;5103540;28;20099;-82
2023/06/01 01:00:43;;;;;;;11.30;5.07;;;9.80;98.10;;;;;;5092534;28;20078;-82
2023/06/01 01:03:10;;;;;;;9.60;4.38;;;9.80;98.10;;;;;;5100557;28;20074;-81
2023/06/01 01:05:37;;;;;;;10.95;4.93;;;9.70;98.10;;;;;;5107721;28;20019;-82
2023/06/01 01:08:32;;;;;;;7.05;4.43;;;9.70;98.10;;;;;;5107031;28;20028;-81
2023/06/01 01:11:15;;;;;;;6.43;4.20;;;9.80;98.00;;;;;;5096575;28;20024;-81
2023/06/01 01:14:10;;;;;;;7.35;3.60;;;9.80;97.90;;;;;;5079249;28;20454;-81
2023/06/01 01:16:59;;;;;;;9.93;4.47;;;9.70;97.90;;;;;;5104577;28;20513;-85
2023/06/01 01:20:08;;;;;;;7.15;4.13;;;9.70;97.80;;;;;;5113536;28;20480;-84
2023/06/01 01:22:34;;;;;;;13.73;4.53;;;9.70;97.70;;;;;;5084061;28;20024;-88
2023/06/01 01:25:27;;;;;;;5.97;4.22;;;9.70;97.80;;;;;;5103104;28;20032;-83
2023/06/01 01:28:13;;;;;;;8.50;4.18;;;9.80;97.90;;;;;;5097109;28;20077;-83
2023/06/01 01:30:42;;;;;;;6.13;3.90;;;9.80;97.70;;;;;;5097662;28;20020;-84
2023/06/01 01:33:10;;;;;;;8.32;4.15;;;9.70;97.60;;;;;;5079447;28;20430;-84
2023/06/01 01:35:38;;;;;;;8.88;4.05;;;9.70;97.60;;;;;;5096763;28;20024;-84
2023/06/01 01:38:04;;;;;;;7.10;3.60;;;9.80;97.50;;;;;;5100347;28;20016;-84
2023/06/01 01:40:30;;;;;;;6.13;4.03;;;9.80;97.50;;;;;;5114125;28;20020;-83
2023/06/01 01:42:58;;;;;;;10.05;4.00;;;9.80;97.40;;;;;;5110571;28;20024;-84
2023/06/01 01:45:24;;;;;;;8.82;4.47;;;9.90;97.40;;;;;;5113946;28;20023;-83
2023/06/01 01:48:09;;;;;;;5.93;4.15;;;9.90;97.30;;;;;;5097247;28;20061;-83
2023/06/01 01:50:41;;;;;;;8.35;4.45;;;10.00;97.30;;;;;;5121983;28;20027;-82
2023/06/01 01:53:09;;;;;;;9.82;4.78;;;10.00;97.20;;;;;;5130964;28;20022;-82
2023/06/01 01:55:36;;;;;;;7.22;4.57;;;10.10;97.20;;;;;;5113253;28;20442;-83
2023/06/01 01:58:03;;;;;;;12.90;5.07;;;10.10;97.10;;;;;;5119364;28;20032;-81
2023/06/01 02:00:31;;;;;;;9.05;4.63;;;10.10;97.00;;;;;;5098519;28;20148;-83
2023/06/01 02:02:58;;;;;;;7.38;4.28;;;10.10;97.00;;;;;;5091886;28;20016;-83
2023/06/01 02:05:24;;;;;;;7.88;4.55;;;10.20;96.90;;;;;;5102282;28;20031;-82
2023/06/01 02:07:50;;;;;;;10.52;4.47;;;10.20;96.80;;;;;;5105686;28;20046;-82
2023/06/01 02:10:16;;;;;;;6.57;4.05;;;10.30;96.70;;;;;;5105090;28;20024;-84
2023/06/01 02:12:42;;;;;;;10.20;4.82;;;10.40;96.70;;;;;;5110586;28;20028;-83
2023/06/01 02:15:08;;;;;;;10.43;5.20;;;10.40;96.60;;;;;;5125781;28;20161;-82
2023/06/01 02:17:34;;;;;;;10.55;4.47;;;10.50;96.50;;;;;;5104768;28;20020;-83
2023/06/01 02:20:01;;;;;;;8.95;5.20;;;10.50;96.30;;;;;;5102511;28;20016;-83
2023/06/01 02:22:27;;;;;;;10.20;4.00;;;10.60;96.10;;;;;;5102973;28;20096;-82
2023/06/01 02:24:52;;;;;;;6.43;4.50;;;10.60;95.70;;;;;;5078043;28;20111;-83
2023/06/01 02:27:18;;;;;;;4.68;3.63;;;10.70;95.50;;;;;;5104658;28;20026;-83
2023/06/01 02:29:44;;;;;;;8.02;3.95;;;10.80;95.30;;;;;;5117872;28;20420;-82
2023/06/01 02:32:10;;;;;;;13.63;4.68;;;10.80;95.20;;;;;;5096933;28;20392;-83
2023/06/01 02:34:36;;;;;;;7.15;4.05;;;10.90;95.20;;;;;;5095815;28;20118;-83
2023/06/01 02:37:04;;;;;;;8.43;3.72;;;11.00;94.90;;;;;;5078332;28;20029;-83
2023/06/01 02:39:30;;;;;;;8.68;3.55;;;11.10;94.60;;;;;;5095599;28;20062;-83
2023/06/01 02:41:56;;;;;;;6.97;3.55;;;11.20;94.30;;;;;;5110036;28;20012;-81
2023/06/01 02:44:22;;;;;;;5.60;3.80;;;11.20;93.90;;;;;;5094716;28;20023;-83
2023/06/01 02:46:48;;;;;;;6.38;3.75;;;11.30;93.50;;;;;;5090393;28;20027;-82
2023/06/01 02:49:14;;;;;;;7.47;3.78;;;11.40;93.10;;;;;;5114566;28;20038;-82
2023/06/01 02:51:39;;;;;;;6.22;3.17;;;11.60;92.70;;;;;;5091769;28;20023;-83
2023/06/01 02:54:05;;;;;;;7.22;3.55;;;11.70;92.30;;;;;;5097618;28;20028;-82
2023/06/01 02:56:31;;;;;;;6.22;3.25;;;11.80;91.90;;;;;;5103660;28;20023;-83
2023/06/01 02:58:57;;;;;;;6.90;3.67;;;12.00;91.70;;;;;;5114632;28;20015;-83
2023/06/01 03:01:23;;;;;;;5.22;3.08;;;12.20;91.20;;;;;;5084741;28;20499;-82
2023/06/01 03:03:52;;;;;;;5.28;2.92;;;12.30;90.70;;;;;;5101674;28;20028;-82
2023/06/01 03:06:21;;;;;;;9.20;3.28;;;12.40;90.00;;;;;;5114338;28;20012;-80
2023/06/01 03:08:47;;;;;;;5.13;2.70;;;12.50;89.30;;;;;;5114911;28;20443;-82
2023/06/01 03:11:13;;;;;;;10.38;3.10;;;12.60;88.40;;;;;;5097527;28;20484;-82
2023/06/01 03:13:39;;;;;;;5.43;3.13;;;12.70;88.10;;;;;;5094570;28;20032;-82
2023/06/01 03:16:05;;;;;;;5.63;2.75;;;12.80;87.30;;;;;;5076177;28;20028;-82
2023/06/01 03:18:31;;;;;;;6.28;2.90;;;12.90;86.80;;;;;;5104293;28;20475;-82
2023/06/01 03:20:56;;;;;;;7.60;3.45;;;13.00;86.20;;;;;;5104496;28;20103;-83
2023/06/01 03:23:22;;;;;;;7.50;2.72;;;13.10;85.50;;;;;;5102629;28;20016;-81
2023/06/01 03:25:48;;;;;;;10.40;2.92;;;13.20;84.70;;;;;;5085443;28;20024;-83
2023/06/01 03:28:14;;;;;;;6.28;3.33;;;13.30;84.50;;;;;;5110568;28;20105;-83
2023/06/01 03:30:42;;;;;;;5.70;3.10;;;13.40;84.30;;;;;;5095386;28;20560;-84
2023/06/01 03:33:07;;;;;;;;;;;13.50;84.20;;;;;;5091754;28;20415;-84
2023/06/01 03:35:33;;;;;;;5.47;3.35;;;13.70;85.10;;;;;;5086339;28;19916;-84
2023/06/01 03:37:59;;;;;;;5.25;3.60;;;13.80;83.80;;;;;;5103636;28;20485;-84
2023/06/01 03:40:26;;;;;;;7.40;3.30;;;13.90;82.20;;;;;;5082223;28;20016;-84
2023/06/01 03:42:51;;;;;;;5.75;2.92;;;14.00;81.80;;;;;;5112335;28;20107;-84
2023/06/01 03:45:17;;;;;;;8.75;3.83;;;14.10;80.90;;;;;;5092940;28;20092;-83
2023/06/01 03:47:44;;;;;;;7.25;3.15;;;14.20;80.40;;;;;;5077737;28;20020;-84
2023/06/01 03:50:11;;;;;;;3.40;2.30;;;14.30;80.40;;;;;;5108419;28;20499;-83
2023/06/01 03:52:37;;;;;;;6.10;2.67;;;14.40;78.90;;;;;;5091361;28;20063;-83
2023/06/01 03:55:10;;;;;;;5.90;2.85;;;14.50;78.00;;;;;;5105429;28;20073;-83
2023/06/01 03:57:37;;;;;;;5.10;2.67;;;14.60;76.60;;;;;;5109528;28;20024;-85
2023/06/01 04:00:20;;;;;;;5.20;2.50;;;14.60;76.40;;;;;;5093997;28;20059;-84
2023/06/01 04:02:52;;;;;;;6.38;2.25;;;14.70;75.10;;;;;;5095018;28;20020;-83
2023/06/01 04:05:19;;;;;;;5.28;2.60;;;14.70;74.50;;;;;;5119643;28;20028;-86
2023/06/01 04:07:46;;;;;;;5.68;2.92;;;14.80;75.00;;;;;;5099978;28;20019;-83
2023/06/01 04:10:14;;;;;;;5.25;3.13;;;14.90;75.30;;;;;;5109439;28;20034;-83
2023/06/01 04:12:48;;;;;;;11.30;3.08;;;15.00;75.50;;;;;;5098193;28;20020;-84
2023/06/01 04:15:16;;;;;;;5.45;2.72;;;15.20;74.00;;;;;;5086262;28;20040;-83
2023/06/01 04:17:43;;;;;;;5.30;2.90;;;15.30;73.10;;;;;;5076526;28;20020;-83
2023/06/01 04:20:14;;;;;;;6.57;2.42;;;15.40;74.10;;;;;;5095339;28;20380;-84
2023/06/01 04:22:41;;;;;;;9.02;3.55;;;15.50;73.50;;;;;;5100719;28;20121;-83
2023/06/01 04:25:09;;;;;;;7.85;3.33;;;15.60;73.50;;;;;;5107729;28;20020;-84
2023/06/01 04:27:38;;;;;;;6.47;3.22;;;15.80;72.50;;;;;;5096024;28;20027;-83
2023/06/01 04:30:07;;;;;;;7.97;3.42;;;15.90;71.70;;;;;;5103613;28;20023;-84
2023/06/01 04:32:40;;;;;;;5.15;3.15;;;16.00;72.40;;;;;;5109274;28;20008;-84
2023/06/01 04:35:07;;;;;;;8.25;3.83;;;16.10;72.10;;;;;;5116716;28;20032;-84
2023/06/01 04:37:39;;;;;;;7.45;3.50;;;16.20;70.90;;;;;;5082879;28;20016;-85
2023/06/01 04:40:07;;;;;;;6.75;3.55;;;16.30;69.60;;;;;;5099024;28;20051;-84
2023/06/01 04:42:34;;;;;;;8.32;3.63;;;16.30;69.40;;;;;;5082405;28;20491;-82
2023/06/01 04:45:04;;;;;;;7.78;3.88;;;16.40;70.00;;;;;;5102847;28;20577;-83
2023/06/01 04:47:37;;;;;;;12.57;5.35;;;16.50;69.80;;;;;;5084060;28;20031;-81
2023/06/01 04:50:09;;;;;;;8.07;3.83;;;16.60;69.20;;;;;;5105310;28;20392;-83
2023/06/01 04:52:40;;;;;;;9.80;4.32;;;16.70;67.80;;;;;;5115659;28;20102;-83
2023/06/01 04:55:06;;;;;;;7.20;3.70;;;16.80;67.90;;;;;;5107139;28;20031;-85
2023/06/01 04:58:08;;;;;;;7.93;4.30;;;16.90;67.80;;;;;;5107892;28;20078;-81
2023/06/01 05:00:34;;;;;;;7.75;3.72;;;17.00;67.70;;;;;;5089516;28;20420;-82
2023/06/01 05:03:00;;;;;;;9.52;4.32;;;17.20;66.50;;;;;;5094718;28;20020;-83
2023/06/01 05:05:27;;;;;;;7.88;3.55;;;17.40;65.90;;;;;;5084910;28;20028;-84
2023/06/01 05:07:53;;;;;;;6.53;2.78;;;17.90;64.60;;;;;;5113546;28;20045;-83
2023/06/01 05:10:18;;;;;;;5.90;3.95;;;18.40;63.10;;;;;;5101524;28;20032;-82
2023/06/01 05:12:45;;;;;;;8.70;3.83;;;19.10;61.60;;;;;;5101859;28;20100;-84
2023/06/01 05:15:11;;;;;;;8.93;3.80;;;19.80;60.20;;;;;;5098795;28;20439;-86
2023/06/01 05:17:38;;;;;;;5.18;3.08;;;20.60;58.00;;;;;;5092138;28;20387;-83
2023/06/01 05:20:05;;;;;;;5.65;3.22;;;21.30;55.60;;;;;;5097626;28;20439;-85
2023/06/01 05:22:31;;;;;;;7.40;3.80;;;21.70;54.10;;;;;;5110313;28;20141;-83
2023/06/01 05:24:57;;;;;;;7.30;3.30;;;22.30;53.20;;;;;;5088050;28;20040;-84
2023/06/01 05:27:24;;;;;;;7.88;3.38;;;22.90;51.80;;;;;;5104983;28;20008;-84
2023/06/01 05:29:50;;;;;;;8.30;4.47;;;23.30;50.60;;;;;;5097365;28;20028;-85
2023/06/01 05:32:16;;;;;;;11.80;3.65;;;24.10;50.00;;;;;;5102972;28;20473;-84
2023/06/01 05:37:37;;;;;;;7.60;3.22;;;25.10;46.50;;;;;;5083424;28;20040;-84
2023/06/01 05:40:06;;;;;;;12.45;3.92;;;25.30;46.20;;;;;;5103588;28;20202;-88
2023/06/01 05:42:36;;;;;;;7.13;3.78;;;25.50;44.90;;;;;;5098175;28;20016;-88
2023/06/01 05:45:02;;;;;;;9.70;3.67;;;25.70;44.40;;;;;;5114830;28;20039;-86
2023/06/01 05:47:28;;;;;;;7.85;4.28;;;25.70;43.90;;;;;;5100708;28;20023;-90
2023/06/01 05:49:54;;;;;;;11.95;4.65;;;25.50;43.50;;;;;;5097930;28;20095;-88
2023/06/01 05:52:20;;;;;;;7.45;4.40;;;25.50;43.60;;;;;;5092804;28;20046;-87
2023/06/01 05:54:48;;;;;;;9.13;3.88;;;25.80;43.70;;;;;;5101353;28;20391;-85
2023/06/01 05:57:15;;;;;;;12.85;3.97;;;26.50;43.10;;;;;;5110359;28;20030;-89
2023/06/01 05:59:42;;;;;;;9.88;3.53;;;26.80;42.00;;;;;;5103572;28;20038;-88
2023/06/01 06:02:09;;;;;;;4.43;2.97;;;26.90;41.30;;;;;;5128800;28;20023;-87
2023/06/01 06:04:35;;;;;;;9.25;2.97;;;27.10;41.50;;;;;;5113672;28;20039;-86
2023/06/01 06:07:00;;;;;;;4.07;2.72;;;27.60;41.00;;;;;;5110608;28;20377;-89
2023/06/01 06:09:26;;;;;;;3.25;2.67;;;27.60;40.80;;;;;;5108153;28;20023;-86
2023/06/01 06:11:52;;;;;;;7.38;2.88;;;28.30;39.80;;;;;;5112361;28;20616;-86
2023/06/01 06:14:18;;;;;;;7.03;2.50;;;29.10;39.20;;;;;;5095930;28;20026;-87
2023/06/01 06:16:44;;;;;;;5.32;2.47;;;29.50;38.40;;;;;;5097860;28;20024;-86
2023/06/01 06:19:10;;;;;;;3.97;2.50;;;29.60;37.90;;;;;;5121529;28;20063;-87
2023/06/01 06:21:37;;;;;;;7.07;2.90;;;29.70;37.80;;;;;;5100467;28;20034;-88
2023/06/01 06:24:03;;;;;;;9.27;2.88;;;29.70;37.80;;;;;;5101823;28;20071;-88
2023/06/01 06:26:31;;;;;;;3.77;2.73;;;30.20;37.20;;;;;;5093334;28;20035;-88
2023/06/01 06:28:57;;;;;;;5.97;2.90;;;30.60;36.80;;;;;;5112389;28;20008;-87
2023/06/01 06:31:23;;;;;;;7.65;2.92;;;31.10;36.90;;;;;;5120933;28;20019;-87
2023/06/01 06:33:49;;;;;;;6.47;2.77;;;31.80;35.80;;;;;;5112655;28;20020;-88
2023/06/01 06:36:16;;;;;;;8.23;3.17;;;32.20;35.50;;;;;;5114838;28;20027;-88
2023/06/01 06:38:42;;;;;;;10.18;3.22;;;32.70;34.50;;;;;;5107175;28;20746;-89
2023/06/01 06:41:08;;;;;;;7.90;3.00;;;32.00;34.60;;;;;;5099581;28;20067;-89
2023/06/01 06:43:34;;;;;;;4.77;2.70;;;32.30;35.00;;;;;;5096624;28;20478;-88
2023/06/01 06:46:00;;;;;;;3.83;2.83;;;32.50;34.40;;;;;;5112078;28;20060;-86
2023/06/01 06:48:26;;;;;;;4.97;2.50;;;32.50;34.20;;;;;;5096991;28;20268;-88
2023/06/01 06:50:51;;;;;;;8.23;2.33;;;32.10;34.80;;;;;;5100176;28;20057;-90
2023/06/01 06:53:18;;;;;;;6.43;3.03;;;32.30;34.60;;;;;;5090358;28;20120;-88
2023/06/01 06:55:44;;;;;;;11.05;3.08;;;32.90;34.60;;;;;;5082758;28;20024;-88
2023/06/01 06:58:22;;;;;;;6.88;3.33;;;33.60;33.90;;;;;;5106859;28;20027;-89
2023/06/01 07:00:48;;;;;;;5.25;2.60;;;34.60;34.10;;;;;;5105553;28;20028;-89
2023/06/01 07:03:14;;;;;;;7.72;2.55;;;35.30;32.40;;;;;;5117390;28;20079;-87
2023/06/01 07:05:40;;;;;;;2.83;2.20;;;35.00;31.30;;;;;;5105930;28;20079;-89
2023/06/01 07:08:06;;;;;;;8.27;2.53;;;33.80;32.20;;;;;;5105888;28;20058;-87
2023/06/01 07:10:32;;;;;;;7.20;2.90;;;33.50;33.00;;;;;;5105543;28;20036;-88
2023/06/01 07:12:58;;;;;;;10.30;2.83;;;33.80;33.10;;;;;;5101203;28;20020;-87
2023/06/01 07:15:24;;;;;;;8.90;2.70;;;33.30;32.80;;;;;;5117902;28;20328;-89
2023/06/01 07:17:50;;;;;;;;;;;33.30;33.80;;;;;;5098069;28;20031;-88
2023/06/01 07:20:16;;;;;;;6.78;2.60;;;33.40;33.80;;;;;;5082556;28;19957;-88
2023/06/01 07:22:42;;;;;;;7.90;3.03;;;33.40;32.70;;;;;;5101082;28;20460;-89
2023/06/01 07:25:09;;;;;;;7.07;3.40;;;32.70;33.40;;;;;;5113241;28;20069;-88
2023/06/01 07:27:36;;;;;;;6.68;2.35;;;33.60;33.50;;;;;;5129621;28;20020;-86
2023/06/01 07:30:03;;;;;;;5.10;2.45;;;34.70;32.60;;;;;;5115980;28;20036;-87
2023/06/01 07:32:29;;;;;;;5.65;2.42;;;34.90;31.90;;;;;;5104465;28;20110;-88
2023/06/01 07:34:57;;;;;;;7.10;1.80;;;34.50;31.90;;;;;;5093092;28;20038;-89
2023/06/01 07:37:26;;;;;;;7.43;2.33;;;34.50;31.70;;;;;;5114587;28;20031;-88
2023/06/01 07:39:54;;;;;;;6.03;2.58;;;34.30;32.20;;;;;;5110114;28;20062;-87
2023/06/01 07:42:20;;;;;;;5.25;2.47;;;34.60;31.30;;;;;;5112243;28;20075;-87
2023/06/01 07:44:47;;;;;;;5.57;2.50;;;34.30;31.10;;;;;;5115675;28;20043;-88
2023/06/01 07:47:13;;;;;;;5.30;2.60;;;34.00;31.60;;;;;;5119631;28;20016;-88
2023/06/01 07:49:39;;;;;;;5.03;2.08;;;34.80;31.00;;;;;;5110754;28;20023;-88
2023/06/01 07:52:07;;;;;;;4.45;2.38;;;35.20;30.30;;;;;;5096908;28;20012;-87
2023/06/01 07:54:37;;;;;;;4.05;2.20;;;35.50;30.90;;;;;;5137035;28;20059;-88
2023/06/01 07:57:04;;;;;;;3.63;1.85;;;35.60;30.40;;;;;;5104208;28;20008;-88
2023/06/01 07:59:31;;;;;;;6.07;2.30;;;36.00;30.20;;;;;;5106509;28;20060;-88
2023/06/01 08:01:58;;;;;;;6.53;2.20;;;36.60;29.80;;;;;;5113069;28;20019;-88
2023/06/01 08:04:26;;;;;;;6.07;2.50;;;35.70;29.70;;;;;;5126367;28;20008;-86
2023/06/01 08:06:55;;;;;;;8.82;2.58;;;34.50;30.10;;;;;;5113838;28;20039;-87
2023/06/01 08:09:23;;;;;;;3.55;2.20;;;34.00;30.90;;;;;;5117179;28;20035;-87
2023/06/01 08:11:50;;;;;;;7.93;3.17;;;33.20;30.80;;;;;;5125937;28;20152;-87
2023/06/01 08:14:16;;;;;;;4.97;2.65;;;33.30;32.00;;;;;;5085149;28;20425;-88
2023/06/01 08:16:43;;;;;;;5.05;1.98;;;34.70;30.90;;;;;;5104044;28;20402;-87
2023/06/01 08:19:09;;;;;;;9.35;2.60;;;34.50;30.60;;;;;;5102902;28;20032;-88
2023/06/01 08:21:35;;;;;;;5.32;2.13;;;34.50;31.10;;;;;;5114216;28;20035;-87
2023/06/01 08:24:04;;;;;;;3.97;2.40;;;35.20;31.10;;;;;;5077519;28;20039;-88
2023/06/01 08:26:30;;;;;;;7.45;4.45;;;35.40;30.10;;;;;;5098630;28;20361;-88
2023/06/01 08:28:56;;;;;;;5.97;2.53;;;35.10;30.90;;;;;;5088845;28;20066;-89
2023/06/01 08:31:24;;;;;;;5.80;3.05;;;35.30;30.70;;;;;;5079382;28;20099;-89
2023/06/01 08:33:51;;;;;;;5.47;2.90;;;36.30;30.60;;;;;;5086386;28;20031;-89
2023/06/01 08:36:18;;;;;;;7.38;3.70;;;36.50;29.70;;;;;;5103002;28;20027;-87
2023/06/01 08:38:45;;;;;;;9.98;2.47;;;36.80;29.80;;;;;;5092948;28;20023;-88
2023/06/01 08:41:16;;;;;;;;;;;35.40;29.70;;;;;;5109989;28;20396;-89
2023/06/01 08:43:47;;;;;;;4.85;2.33;;;35.10;31.50;;;;;;5111256;28;19954;-88
2023/06/01 08:46:20;;;;;;;5.30;2.65;;;35.70;30.40;;;;;;5109771;28;20399;-87
2023/06/01 08:48:48;;;;;;;4.30;2.63;;;36.90;29.70;;;;;;5099041;28;20034;-89
2023/06/01 08:51:14;;;;;;;5.60;2.47;;;36.60;29.50;;;;;;5086683;28;20092;-88
2023/06/01 08:53:42;;;;;;;;;;;37.00;29.50;;;;;;5088821;28;20035;-89
2023/06/01 08:56:08;;;;;;;5.55;2.53;;;37.20;30.00;;;;;;5095643;28;19982;-89
2023/06/01 08:58:36;;;;;;;7.93;2.53;;;37.30;29.30;;;;;;5108228;28;20552;-87
2023/06/01 09:01:02;;;;;;;4.45;3.42;;;37.20;29.20;;;;;;5106892;28;20024;-88
2023/06/01 09:03:28;;;;;;;5.55;2.22;;;36.90;29.50;;;;;;5112681;28;20039;-89
2023/06/01 09:05:54;;;;;;;5.68;2.45;;;37.40;29.50;;;;;;5103329;28;20032;-88
2023/06/01 09:08:22;;;;;;;7.45;2.47;;;37.90;29.50;;;;;;5102037;28;20039;-89
2023/06/01 09:10:48;;;;;;;5.55;2.55;;;37.90;28.50;;;;;;5103897;28;20028;-88
2023/06/01 09:13:34;;;;;;;5.55;2.30;;;37.40;28.60;;;;;;5100911;28;20438;-89
2023/06/01 09:16:00;;;;;;;3.42;1.95;;;36.90;29.20;;;;;;5119994;28;20051;-88
2023/06/01 09:18:26;;;;;;;6.53;3.30;;;36.20;29.00;;;;;;5088390;28;20020;-87
2023/06/01 09:20:53;;;;;;;9.73;2.83;;;35.30;29.80;;;;;;5120117;28;20031;-89
2023/06/01 09:23:28;;;;;;;4.55;2.58;;;35.20;30.00;;;;;;5097712;28;20020;-88
2023/06/01 09:26:12;;;;;;;4.63;2.47;;;35.40;29.70;;;;;;5079727;28;20028;-88
2023/06/01 09:28:56;;;;;;;12.82;3.00;;;33.80;30.00;;;;;;5090164;28;20027;-88
2023/06/01 09:31:44;;;;;;;7.57;4.82;;;33.40;31.50;;;;;;5112175;28;20374;-87
2023/06/01 09:34:15;;;;;;;6.22;2.20;;;34.90;31.60;;;;;;5106287;28;20139;-90
2023/06/01 09:36:41;;;;;;;7.05;3.33;;;35.00;29.20;;;;;;5096230;28;20040;-87
2023/06/01 09:39:13;;;;;;;5.13;3.38;;;35.30;29.70;;;;;;5104036;28;20019;-88
2023/06/01 09:41:58;;;;;;;38.92;17.23;;;36.00;29.20;;;;;;5118762;28;20024;-89
2023/06/01 09:44:30;;;;;;;9.40;3.85;;;35.90;29.00;;;;;;5107002;28;20031;-88
2023/06/01 09:47:03;;;;;;;6.22;3.05;;;35.20;28.80;;;;;;5134731;28;20011;-89
2023/06/01 09:49:33;;;;;;;7.40;1.95;;;35.20;29.00;;;;;;5116949;28;20028;-88
2023/06/01 09:52:04;;;;;;;6.13;2.80;;;35.60;28.90;;;;;;5110004;28;20076;-89
2023/06/01 09:54:34;;;;;;;3.90;2.42;;;35.70;28.80;;;;;;5111802;28;20109;-86
2023/06/01 09:57:02;;;;;;;7.47;3.58;;;35.10;28.80;;;;;;5089214;28;20044;-87
2023/06/01 09:59:29;;;;;;;6.72;3.03;;;33.80;29.10;;;;;;5108101;28;20016;-87
2023/06/01 10:01:58;;;;;;;7.78;3.95;;;32.40;30.40;;;;;;5098128;28;20442;-86
2023/06/01 10:04:26;;;;;;;9.70;4.63;;;32.30;30.80;;;;;;5102108;28;20389;-87
2023/06/01 10:06:57;;;;;;;9.05;3.63;;;33.20;30.70;;;;;;5081862;28;20070;-87
2023/06/01 10:09:24;;;;;;;8.18;2.35;;;34.20;30.00;;;;;;5098608;28;20024;-85
2023/06/01 10:11:53;;;;;;;3.35;1.58;;;34.90;29.10;;;;;;5093058;28;20023;-88
2023/06/01 10:14:21;;;;;;;4.45;2.50;;;34.70;28.80;;;;;;5122149;28;20161;-87
2023/06/01 10:16:50;;;;;;;4.25;2.90;;;34.60;28.90;;;;;;5082942;28;20031;-87
2023/06/01 10:19:17;;;;;;;15.15;7.50;;;33.60;29.40;;;;;;5103837;28;20105;-87
2023/06/01 10:21:47;;;;;;;14.23;5.63;;;33.20;30.10;;;;;;5126965;28;20040;-88
2023/06/01 10:24:19;;;;;;;8.90;4.53;;;33.50;30.60;;;;;;5125017;28;20098;-87
2023/06/01 10:27:26;;;;;;;10.25;4.05;;;34.20;30.10;;;;;;5116413;28;20044;-88
2023/06/01 10:29:53;;;;;;;4.72;3.17;;;33.60;29.40;;;;;;5101854;28;20020;-87
2023/06/01 10:32:38;;;;;;;11.10;5.22;;;32.10;30.50;;;;;;5120040;28;20084;-86
2023/06/01 10:35:05;;;;;;;5.47;2.90;;;30.80;31.50;;;;;;5099468;28;20110;-88
2023/06/01 10:37:30;;;;;;;;;;;29.30;32.00;;;;;;5113348;28;20055;-87
2023/06/01 10:40:24;;;;;;;4.57;2.57;;;28.00;32.80;;;;;;5101137;28;20369;-86
2023/06/01 10:42:50;;;;;;;10.32;4.18;;;26.80;34.40;;;;;;5097379;28;20086;-87
2023/06/01 10:45:38;;;;;;;5.68;3.13;;;25.60;36.50;;;;;;5102711;28;20032;-88
2023/06/01 10:48:05;;;;;;;4.68;2.53;;;;;;;;;;5119610;28;20078;-88
2023/06/01 10:50:31;;;;;;;8.38;3.28;;;;;;;;;;5102200;28;20020;-87
2023/06/01 10:53:23;;;;;;;15.35;3.42;;;25.10;37.00;;;;;;5098897;28;20035;-88
2023/06/01 10:56:09;;;;;;;5.05;2.90;;;;;;;;;;5081635;28;20513;-88
2023/06/01 10:58:35;;;;;;;4.77;2.47;;;;;;;;;;5107061;28;20109;-89
2023/06/01 11:01:02;;;;;;;5.32;2.08;;;;;;;;;;5105599;28;20099;-88
2023/06/01 11:03:50;;;;;;;7.70;3.83;;;;;;;;;;5089411;28;20020;-88
2023/06/01 11:06:34;;;;;;;7.03;4.03;;;;;;;;;;5120167;28;20058;-87
2023/06/01 11:09:01;;;;;;;7.78;4.53;;;24.30;38.60;;;;;;5102407;28;20024;-87
2023/06/01 11:11:58;;;;;;;;;;;23.80;39.80;;;;;;5106245;28;20016;-89
2023/06/01 11:14:26;;;;;;;9.98;3.20;;;23.60;39.40;;;;;;5097878;28;19903;-88
2023/06/01 11:16:54;;;;;;;5.93;3.08;;;23.80;40.00;;;;;;5116731;28;20024;-86
2023/06/01 11:19:27;;;;;;;10.32;3.13;;;23.70;39.70;;;;;;5107867;28;20046;-88
2023/06/01 11:22:02;;;;;;;5.90;2.85;;;23.80;40.20;;;;;;5119579;28;20134;-87
2023/06/01 11:24:36;;;;;;;5.55;2.78;;;23.80;39.40;;;;;;5122773;28;20032;-87
2023/06/01 11:27:07;;;;;;;8.57;3.88;;;23.60;39.90;;;;;;5116482;28;20055;-89
2023/06/01 11:29:34;;;;;;;8.02;2.97;;;23.70;40.70;;;;;;5095969;28;20055;-88
2023/06/01 11:32:01;;;;;;;7.27;2.60;;;23.70;40.30;;;;;;5101071;28;20023;-87
2023/06/01 11:34:40;;;;;;;6.15;3.00;;;23.70;40.70;;;;;;5104474;28;20364;-90
2023/06/01 11:37:15;;;;;;;6.43;2.72;;;23.60;40.70;;;;;;5108905;28;20027;-89
2023/06/01 11:39:41;;;;;;;4.20;2.70;;;23.60;40.70;;;;;;5118839;28;20028;-87
2023/06/01 11:42:10;;;;;;;4.82;2.35;;;23.60;40.90;;;;;;5102833;28;20020;-86
2023/06/01 11:44:42;;;;;;;7.13;4.00;;;23.50;40.40;;;;;;5111431;28;20398;-88
2023/06/01 11:47:09;;;;;;;10.70;4.95;;;23.30;41.70;;;;;;5101112;28;20457;-88
2023/06/01 11:49:47;;;;;;;;;;;23.30;41.80;;;;;;5097229;28;20040;-87
2023/06/01 11:52:13;;;;;;;15.38;5.22;;;23.20;41.10;;;;;;5101827;28;19908;-87
2023/06/01 11:54:39;;;;;;;4.90;2.88;;;23.10;42.20;;;;;;5103516;28;20067;-91
2023/06/01 11:57:05;;;;;;;10.35;3.25;;;23.00;42.20;;;;;;5118834;28;20044;-89
2023/06/01 11:59:48;;;;;;;5.00;3.15;;;23.00;42.70;;;;;;5113525;28;20023;-89
2023/06/01 12:02:29;;;;;;;6.10;3.60;;;23.20;42.30;;;;;;5098141;28;20067;-88
2023/06/01 12:05:08;;;;;;;6.45;2.70;;;23.20;42.20;;;;;;5084628;28;20043;-88
2023/06/01 12:07:54;;;;;;;8.13;2.92;;;23.20;42.50;;;;;;5099025;28;20020;-89
2023/06/01 12:10:21;;;;;;;12.93;3.33;;;23.30;42.40;;;;;;5106800;28;20015;-86
2023/06/01 12:12:47;;;;;;;9.80;2.90;;;23.40;42.60;;;;;;5132607;28;20023;-88
2023/06/01 12:15:18;;;;;;;31.30;3.40;;;23.50;42.30;;;;;;5101315;28;20114;-87
2023/06/01 12:17:52;;;;;;;4.47;2.42;;;23.60;42.00;;;;;;5118907;28;20020;-89
2023/06/01 12:20:45;;;;;;;4.53;2.45;;;23.50;42.20;;;;;;5101555;28;20499;-88
2023/06/01 12:23:14;;;;;;;4.65;2.95;;;23.40;42.00;;;;;;5084412;28;20020;-88
2023/06/01 12:25:57;;;;;;;7.10;4.20;;;23.30;42.40;;;;;;5089173;28;20043;-89
2023/06/01 12:28:24;;;;;;;8.52;3.08;;;23.30;42.30;;;;;;5099503;28;20020;-88
2023/06/01 12:31:15;;;;;;;5.40;2.97;;;23.20;42.30;;;;;;5090891;28;20036;-87
2023/06/01 12:33:44;;;;;;;6.03;2.25;;;23.20;41.90;;;;;;5053929;28;20087;-88
2023/06/01 12:36:12;;;;;;;5.07;3.20;;;23.20;42.20;;;;;;5055050;28;20036;-88
2023/06/01 12:38:51;;;;;;;6.13;2.30;;;23.20;42.50;;;;;;5055589;28;20537;-86
2023/06/01 12:41:18;;;;;;;10.13;2.72;;;23.20;42.50;;;;;;5059041;28;20409;-87
2023/06/01 12:43:50;;;;;;;7.38;3.10;;;23.00;43.10;;;;;;5038008;28;20371;-88
2023/06/01 12:46:27;;;;;;;23.70;5.95;;;22.90;43.10;;;;;;5038330;28;20047;-86
2023/06/01 12:49:10;;;;;;;15.00;5.20;;;22.90;43.60;;;;;;5044909;28;20033;-87
2023/06/01 12:51:36;;;;;;;8.32;3.90;;;23.00;43.70;;;;;;5070619;28;20040;-89
2023/06/01 12:54:02;;;;;;;10.02;4.90;;;23.00;42.90;;;;;;5067647;28;20049;-89
2023/06/01 12:56:28;;;;;;;10.60;4.68;;;22.90;43.70;;;;;;5040827;28;20100;-89
2023/06/01 12:58:55;;;;;;;5.40;3.05;;;23.00;43.60;;;;;;5058589;28;20476;-89
2023/06/01 13:01:21;;;;;;;8.25;3.20;;;23.00;43.40;;;;;;5045748;28;20074;-87
2023/06/01 13:03:47;;;;;;;8.27;2.50;;;22.90;43.60;;;;;;5050916;28;20041;-88
2023/06/01 13:06:16;;;;;;;3.92;2.15;;;22.80;43.50;;;;;;5107576;28;20354;-87